Wibaux, Montana
Current Conditions -  °F | °C
As of 5:15 PM on Friday 28 Nov 2014 (Local Time) from K20U Reporting Station
Clear Clear  
Wind Chill: 36°   Ceiling: Unl
Heat Index: 43°   Visibility: 10mi
Dew Point: 32°   Wind: 13mph
Humidity: 66%   Direction: 230°SW
Pressure: 29.44"   Gusts: 20mph
Location:  46.99°N, 104.19°W
Report Text: K20U 290015Z AUTO 23011G17KT 10SM CLR 06/00 A2944 RMK AO2
Loading
Personal Weather Stations






























Interactive Weather Map New forecast layout! Learn more

10-Day Weather Forecast

Advertisements
Track Severe Weather on mobile